createdAt,value
2022-12-29T00:02:17.993Z,5.43
2022-12-29T00:04:44.640Z,4.65
2022-12-29T00:07:12.207Z,4.65
2022-12-29T00:09:38.653Z,4.93
2022-12-29T00:12:05.557Z,3.85
2022-12-29T00:14:50.375Z,4.40
2022-12-29T00:17:16.693Z,2.25
2022-12-29T00:20:03.519Z,3.78
2022-12-29T00:22:48.318Z,3.47
2022-12-29T00:25:33.019Z,3.40
2022-12-29T00:28:18.270Z,3.45
2022-12-29T00:31:03.080Z,2.53
2022-12-29T00:33:49.847Z,4.07
2022-12-29T00:36:31.241Z,4.72
2022-12-29T00:39:22.238Z,2.55
2022-12-29T00:42:08.162Z,3.80
2022-12-29T00:47:04.109Z,3.80
2022-12-29T00:49:31.402Z,2.80
2022-12-29T00:52:09.874Z,5.72
2022-12-29T00:54:38.534Z,4.07
2022-12-29T00:57:08.147Z,5.72
2022-12-29T00:59:38.985Z,3.45
2022-12-29T01:02:06.594Z,4.43
2022-12-29T01:04:33.387Z,2.00
2022-12-29T01:06:59.892Z,4.80
2022-12-29T01:09:44.839Z,3.05
2022-12-29T01:12:12.170Z,3.28
2022-12-29T01:14:38.889Z,2.40
2022-12-29T01:17:05.488Z,2.17
2022-12-29T01:19:32.077Z,4.43
2022-12-29T01:21:58.416Z,2.30
2022-12-29T01:24:26.296Z,3.47
2022-12-29T01:26:52.795Z,2.35
2022-12-29T01:29:19.341Z,2.75
2022-12-29T01:31:46.134Z,1.65
2022-12-29T01:34:12.812Z,3.72
2022-12-29T01:36:39.470Z,5.50
2022-12-29T01:39:05.823Z,2.35
2022-12-29T01:41:32.527Z,4.18
2022-12-29T01:44:01.952Z,2.50
2022-12-29T01:46:31.085Z,2.75
2022-12-29T01:49:04.879Z,2.28
2022-12-29T01:51:34.473Z,2.70
2022-12-29T01:54:05.358Z,3.60
2022-12-29T01:56:31.898Z,2.05
2022-12-29T01:59:06.082Z,2.53
2022-12-29T02:01:32.552Z,2.17
2022-12-29T02:03:59.357Z,2.88
2022-12-29T02:06:42.267Z,2.13
2022-12-29T02:09:08.752Z,3.22
2022-12-29T02:11:37.076Z,4.22
2022-12-29T02:14:09.711Z,2.08
2022-12-29T02:17:12.472Z,3.28
2022-12-29T02:20:28.374Z,2.75
2022-12-29T02:23:00.610Z,1.77
2022-12-29T02:25:42.236Z,1.75
2022-12-29T02:28:33.080Z,1.77
2022-12-29T02:31:16.501Z,2.72
2022-12-29T02:34:03.084Z,2.15
2022-12-29T02:36:41.874Z,1.85
2022-12-29T02:39:22.507Z,2.88
2022-12-29T02:42:04.654Z,3.22
2022-12-29T02:44:45.549Z,2.83
2022-12-29T02:47:37.746Z,2.35
2022-12-29T02:50:22.969Z,1.88
2022-12-29T02:52:55.301Z,2.70
2022-12-29T02:55:21.651Z,2.17
2022-12-29T02:57:48.153Z,1.63
2022-12-29T03:00:18.340Z,3.63
2022-12-29T03:03:14.092Z,2.65
2022-12-29T03:06:00.423Z,2.50
2022-12-29T03:08:49.846Z,2.30
2022-12-29T03:11:35.261Z,1.35
2022-12-29T03:14:44.777Z,5.63
2022-12-29T03:17:27.639Z,1.88
2022-12-29T03:20:00.352Z,2.67
2022-12-29T03:22:32.996Z,1.55
2022-12-29T03:25:21.750Z,3.00
2022-12-29T03:27:53.964Z,3.70
2022-12-29T03:30:20.392Z,2.10
2022-12-29T03:32:51.426Z,2.17
2022-12-29T03:35:21.794Z,3.45
2022-12-29T03:38:12.126Z,2.88
2022-12-29T03:40:42.740Z,4.35
2022-12-29T03:43:09.818Z,3.10
2022-12-29T03:45:36.228Z,3.05
2022-12-29T03:48:02.662Z,3.00
2022-12-29T03:50:28.987Z,2.78
2022-12-29T03:52:55.333Z,2.28
2022-12-29T03:55:21.678Z,2.30
2022-12-29T03:57:48.046Z,3.58
2022-12-29T04:00:15.074Z,3.03
2022-12-29T04:02:41.632Z,2.70
2022-12-29T04:05:08.338Z,3.55
2022-12-29T04:07:34.668Z,4.63
2022-12-29T04:10:01.063Z,4.05
2022-12-29T04:12:27.470Z,1.73
2022-12-29T04:14:53.914Z,3.08
2022-12-29T04:17:20.246Z,5.03
2022-12-29T04:19:46.606Z,2.45
2022-12-29T04:22:12.990Z,2.83
2022-12-29T04:24:39.330Z,3.00
2022-12-29T04:27:05.664Z,2.45
2022-12-29T04:29:31.984Z,2.47
2022-12-29T04:31:58.370Z,3.15
2022-12-29T04:34:24.696Z,3.60
2022-12-29T04:36:51.085Z,3.30
2022-12-29T04:39:17.397Z,2.15
2022-12-29T04:41:44.358Z,3.47
2022-12-29T04:44:10.757Z,2.70
2022-12-29T04:46:37.152Z,3.03
2022-12-29T04:49:09.246Z,3.35
2022-12-29T04:51:36.165Z,3.13
2022-12-29T04:54:02.494Z,2.13
2022-12-29T04:56:28.808Z,1.83
2022-12-29T04:58:55.274Z,3.15
2022-12-29T05:01:21.652Z,3.97
2022-12-29T05:03:50.266Z,2.38
2022-12-29T05:06:16.613Z,4.00
2022-12-29T05:08:42.955Z,2.42
2022-12-29T05:11:09.270Z,6.57
2022-12-29T05:13:35.644Z,2.35
2022-12-29T05:16:02.021Z,2.30
2022-12-29T05:18:28.424Z,2.90
2022-12-29T05:20:54.755Z,2.10
2022-12-29T05:23:21.366Z,6.85
2022-12-29T05:25:47.674Z,3.13
2022-12-29T05:28:14.670Z,3.10
2022-12-29T05:30:41.335Z,2.40
2022-12-29T05:33:07.680Z,2.65
2022-12-29T05:35:34.161Z,3.17
2022-12-29T05:38:00.465Z,1.58
2022-12-29T05:40:26.851Z,1.90
2022-12-29T05:42:53.180Z,1.63
2022-12-29T05:45:19.502Z,2.53
2022-12-29T05:47:45.793Z,2.42
2022-12-29T05:50:12.157Z,2.25
2022-12-29T05:52:38.498Z,2.00
2022-12-29T05:55:05.246Z,2.60
2022-12-29T05:57:31.563Z,3.97
2022-12-29T05:59:57.872Z,4.15
2022-12-29T06:02:24.446Z,4.05
2022-12-29T06:04:50.856Z,2.28
2022-12-29T06:07:17.249Z,3.17
2022-12-29T06:09:43.586Z,2.78
2022-12-29T06:12:09.908Z,2.60
2022-12-29T06:14:36.210Z,2.47
2022-12-29T06:17:02.485Z,1.98
2022-12-29T06:19:28.780Z,3.92
2022-12-29T06:21:55.865Z,1.83
2022-12-29T06:24:22.685Z,2.80
2022-12-29T06:26:49.042Z,3.28
2022-12-29T06:29:18.943Z,2.35
2022-12-29T06:31:49.708Z,3.10
2022-12-29T06:34:16.433Z,2.33
2022-12-29T06:36:42.786Z,3.95
2022-12-29T06:39:09.159Z,3.97
2022-12-29T06:41:35.624Z,3.70
2022-12-29T06:44:01.996Z,9.00
2022-12-29T06:46:28.410Z,3.45
2022-12-29T06:48:54.767Z,2.72
2022-12-29T06:51:21.109Z,3.15
2022-12-29T06:53:47.537Z,2.95
2022-12-29T06:56:14.042Z,4.10
2022-12-29T06:58:40.318Z,2.70
2022-12-29T07:01:06.882Z,5.40
2022-12-29T07:03:33.577Z,3.97
2022-12-29T07:06:00.103Z,2.40
2022-12-29T07:08:26.455Z,4.47
2022-12-29T07:10:52.896Z,2.28
2022-12-29T07:13:19.323Z,2.67
2022-12-29T07:15:45.712Z,2.90
2022-12-29T07:18:12.109Z,3.30
2022-12-29T07:20:38.520Z,5.43
2022-12-29T07:23:04.831Z,4.20
2022-12-29T07:25:31.185Z,2.35
2022-12-29T07:27:57.577Z,4.93
2022-12-29T07:30:23.898Z,2.78
2022-12-29T07:32:50.323Z,3.70
2022-12-29T07:35:16.693Z,3.50
2022-12-29T07:37:44.043Z,3.85
2022-12-29T07:40:11.275Z,4.32
2022-12-29T07:42:37.708Z,3.17
2022-12-29T07:45:05.170Z,3.20
2022-12-29T07:47:31.549Z,3.42
2022-12-29T07:49:57.916Z,5.18
2022-12-29T07:52:24.365Z,3.78
2022-12-29T07:54:51.344Z,3.75
2022-12-29T07:57:17.767Z,3.13
2022-12-29T07:59:44.389Z,7.40
2022-12-29T08:02:12.587Z,2.80
2022-12-29T08:07:30.222Z,3.90
2022-12-29T08:09:56.536Z,5.22
2022-12-29T08:12:22.908Z,4.40
2022-12-29T08:14:49.576Z,6.40
2022-12-29T08:17:15.919Z,3.40
2022-12-29T08:19:43.547Z,6.22
2022-12-29T08:22:10.296Z,3.63
2022-12-29T08:24:36.691Z,4.05
2022-12-29T08:27:10.884Z,4.72
2022-12-29T08:29:42.463Z,3.75
2022-12-29T08:32:08.814Z,3.25
2022-12-29T08:34:35.201Z,3.72
2022-12-29T08:37:01.777Z,3.63
2022-12-29T08:39:28.602Z,3.28
2022-12-29T08:41:55.290Z,7.38
2022-12-29T08:44:22.333Z,6.20
2022-12-29T08:46:48.747Z,4.45
2022-12-29T08:49:15.338Z,3.00
2022-12-29T08:51:41.714Z,5.28
2022-12-29T08:54:08.153Z,8.15
2022-12-29T08:56:34.573Z,6.75
2022-12-29T08:59:00.893Z,5.82
2022-12-29T09:01:27.447Z,4.90
2022-12-29T09:04:14.447Z,4.75
2022-12-29T09:06:41.276Z,4.63
2022-12-29T09:09:07.757Z,3.28
2022-12-29T09:11:34.147Z,4.85
2022-12-29T09:14:00.827Z,4.22
2022-12-29T09:16:27.944Z,3.25
2022-12-29T09:18:54.524Z,3.60
2022-12-29T09:21:21.021Z,2.47
2022-12-29T09:23:48.887Z,4.13
2022-12-29T09:26:15.178Z,3.47
2022-12-29T09:28:41.555Z,4.68
2022-12-29T09:31:07.961Z,4.20
2022-12-29T09:33:35.142Z,3.53
2022-12-29T09:36:01.814Z,3.70
2022-12-29T09:38:28.979Z,2.80
2022-12-29T09:41:27.610Z,3.40
2022-12-29T09:44:18.056Z,3.70
2022-12-29T09:46:52.102Z,5.47
2022-12-29T09:49:46.926Z,4.43
2022-12-29T09:52:30.310Z,5.68
2022-12-29T09:55:16.297Z,3.85
2022-12-29T09:58:03.091Z,3.72
2022-12-29T10:00:38.643Z,4.28
2022-12-29T10:03:18.262Z,3.95
2022-12-29T10:06:07.329Z,5.93
2022-12-29T10:08:49.947Z,5.63
2022-12-29T10:11:51.368Z,3.00
2022-12-29T10:14:29.949Z,1.90
2022-12-29T10:17:02.181Z,1.90
2022-12-29T10:19:40.566Z,3.40
2022-12-29T10:22:37.584Z,2.05
2022-12-29T10:25:17.405Z,2.42
2022-12-29T10:27:47.950Z,4.32
2022-12-29T10:30:15.018Z,2.15
2022-12-29T10:32:48.814Z,2.03
2022-12-29T10:35:30.692Z,1.40
2022-12-29T10:38:12.228Z,1.67
2022-12-29T10:40:48.550Z,1.75
2022-12-29T10:43:29.879Z,1.77
2022-12-29T10:46:05.249Z,1.45
2022-12-29T10:51:04.114Z,2.45
2022-12-29T10:53:48.690Z,1.38
2022-12-29T10:56:23.380Z,1.13
2022-12-29T10:58:51.361Z,1.70
2022-12-29T11:01:19.274Z,1.40
2022-12-29T11:03:56.453Z,1.90
2022-12-29T11:06:28.305Z,2.78
2022-12-29T11:09:02.035Z,2.15
2022-12-29T11:11:35.179Z,3.88
2022-12-29T11:14:19.434Z,2.95
2022-12-29T11:16:58.164Z,2.15
2022-12-29T11:19:27.764Z,4.82
2022-12-29T11:21:55.009Z,3.13
2022-12-29T11:24:25.288Z,2.95
2022-12-29T11:27:09.363Z,5.15
2022-12-29T11:29:40.519Z,1.92
2022-12-29T11:32:26.111Z,3.33
2022-12-29T11:34:54.677Z,4.18
2022-12-29T11:37:28.419Z,7.88
2022-12-29T11:40:04.146Z,2.47
2022-12-29T11:42:53.304Z,5.25
2022-12-29T11:45:25.481Z,1.35
2022-12-29T11:47:55.745Z,3.97
2022-12-29T11:50:25.431Z,2.47
2022-12-29T11:53:04.473Z,2.25
2022-12-29T11:55:31.715Z,2.55
2022-12-29T11:58:02.920Z,2.25
2022-12-29T12:00:35.586Z,1.42
2022-12-29T12:03:05.213Z,2.58
2022-12-29T12:05:41.157Z,1.80
2022-12-29T12:08:21.290Z,2.25
2022-12-29T12:10:58.015Z,1.52
2022-12-29T12:13:35.888Z,2.25
2022-12-29T12:16:13.521Z,1.63
2022-12-29T12:18:49.642Z,1.17
2022-12-29T12:21:31.540Z,2.60
2022-12-29T12:24:23.446Z,1.90
2022-12-29T12:27:03.757Z,1.23
2022-12-29T12:29:47.485Z,1.50
2022-12-29T12:32:25.865Z,2.95
2022-12-29T12:34:52.550Z,2.05
2022-12-29T12:37:49.832Z,2.80
2022-12-29T12:40:58.917Z,2.42
2022-12-29T12:43:45.054Z,2.03
2022-12-29T12:46:17.194Z,3.25
2022-12-29T12:49:03.466Z,2.60
2022-12-29T12:51:35.074Z,2.42
2022-12-29T12:54:04.116Z,6.55
2022-12-29T12:56:58.505Z,5.05
2022-12-29T12:59:50.264Z,1.83
2022-12-29T13:02:29.650Z,3.33
2022-12-29T13:05:11.230Z,3.13
2022-12-29T13:07:59.066Z,2.38
2022-12-29T13:10:44.123Z,4.30
2022-12-29T13:13:34.202Z,4.25
2022-12-29T13:16:18.536Z,3.67
2022-12-29T13:19:05.829Z,4.07
2022-12-29T13:21:58.611Z,3.30
2022-12-29T13:24:51.781Z,2.25
2022-12-29T13:27:43.833Z,3.10
2022-12-29T13:30:12.974Z,5.07
2022-12-29T13:33:41.040Z,3.53
2022-12-29T13:36:13.356Z,4.28
2022-12-29T13:38:47.844Z,7.20
2022-12-29T13:41:26.639Z,2.80
2022-12-29T13:43:56.521Z,5.75
2022-12-29T13:46:27.678Z,3.92
2022-12-29T13:49:03.147Z,4.55
2022-12-29T13:54:27.869Z,4.50
2022-12-29T13:57:08.177Z,2.97
2022-12-29T13:59:49.757Z,2.70
2022-12-29T14:02:28.067Z,5.50
2022-12-29T14:05:04.089Z,8.80
2022-12-29T14:07:38.272Z,1.88
2022-12-29T14:10:06.247Z,6.75
2022-12-29T14:12:36.872Z,2.13
2022-12-29T14:15:14.118Z,4.03
2022-12-29T14:17:42.044Z,2.45
2022-12-29T14:20:22.174Z,1.70
2022-12-29T14:23:17.432Z,1.90
2022-12-29T14:26:12.767Z,3.00
2022-12-29T14:28:49.649Z,2.50
2022-12-29T14:31:16.054Z,3.63
2022-12-29T14:34:11.540Z,2.15
2022-12-29T14:36:43.778Z,4.70
2022-12-29T14:39:45.228Z,4.75
2022-12-29T14:42:11.479Z,2.03
2022-12-29T14:45:00.420Z,4.93
2022-12-29T14:47:33.806Z,4.55
2022-12-29T14:50:13.324Z,4.55
2022-12-29T14:53:00.072Z,3.83
2022-12-29T14:55:42.496Z,4.43
2022-12-29T14:58:20.120Z,2.72
2022-12-29T15:00:47.274Z,4.18
2022-12-29T15:03:26.088Z,3.35
2022-12-29T15:05:56.795Z,4.50
2022-12-29T15:08:34.361Z,3.03
2022-12-29T15:11:14.262Z,1.95
2022-12-29T15:13:44.307Z,3.40
2022-12-29T15:16:40.195Z,6.90
2022-12-29T15:19:22.704Z,4.13
2022-12-29T15:21:49.311Z,4.00
2022-12-29T15:24:16.009Z,3.97
2022-12-29T15:26:48.001Z,4.05
2022-12-29T15:29:33.044Z,2.42
2022-12-29T15:32:21.843Z,2.40
2022-12-29T15:34:51.702Z,4.60
2022-12-29T15:37:27.522Z,2.17
2022-12-29T15:39:55.861Z,2.22
2022-12-29T15:43:00.019Z,2.25
2022-12-29T15:45:34.424Z,2.83
2022-12-29T15:48:01.194Z,2.45
2022-12-29T15:50:29.997Z,3.75
2022-12-29T15:52:57.418Z,1.30
2022-12-29T15:55:34.734Z,1.98
2022-12-29T15:58:03.772Z,4.80
2022-12-29T16:00:38.079Z,3.15
2022-12-29T16:03:07.445Z,6.35
2022-12-29T16:05:39.255Z,2.83
2022-12-29T16:08:33.413Z,2.78
2022-12-29T16:11:02.373Z,3.40
2022-12-29T16:13:40.018Z,5.40
2022-12-29T16:16:20.016Z,3.88
2022-12-29T16:18:49.367Z,3.45
2022-12-29T16:21:28.690Z,3.92
2022-12-29T16:23:58.336Z,2.70
2022-12-29T16:26:25.275Z,6.50
2022-12-29T16:28:56.783Z,3.95
2022-12-29T16:31:25.884Z,11.27
2022-12-29T16:33:56.480Z,2.10
2022-12-29T16:36:30.118Z,2.92
2022-12-29T16:39:17.875Z,3.33
2022-12-29T16:41:44.410Z,4.18
2022-12-29T16:44:22.777Z,3.08
2022-12-29T16:47:20.473Z,3.53
2022-12-29T16:49:52.456Z,2.97
2022-12-29T16:52:30.710Z,3.42
2022-12-29T16:55:01.830Z,2.70
2022-12-29T16:57:34.809Z,3.17
2022-12-29T17:00:05.029Z,2.85
2022-12-29T17:02:34.566Z,2.00
2022-12-29T17:05:01.068Z,4.90
2022-12-29T17:07:28.646Z,3.88
2022-12-29T17:09:55.438Z,4.07
2022-12-29T17:12:28.407Z,4.78
2022-12-29T17:15:02.617Z,5.05
2022-12-29T17:17:46.662Z,4.65
2022-12-29T17:20:27.288Z,7.03
2022-12-29T17:22:54.074Z,4.88
2022-12-29T17:25:33.485Z,3.63
2022-12-29T17:28:03.183Z,4.80
2022-12-29T17:30:34.064Z,3.13
2022-12-29T17:33:16.697Z,2.97
2022-12-29T17:35:43.133Z,4.93
2022-12-29T17:38:15.973Z,5.10
2022-12-29T17:40:42.863Z,6.15
2022-12-29T17:43:13.102Z,3.40
2022-12-29T17:45:41.249Z,4.93
2022-12-29T17:48:15.771Z,3.95
2022-12-29T17:50:42.680Z,7.43
2022-12-29T17:53:14.588Z,5.72
2022-12-29T17:55:41.901Z,3.75
2022-12-29T17:58:17.036Z,5.68
2022-12-29T18:00:43.703Z,7.13
2022-12-29T18:03:26.834Z,5.03
2022-12-29T18:05:53.434Z,8.20
2022-12-29T18:08:19.763Z,3.83
2022-12-29T18:10:46.269Z,7.07
2022-12-29T18:13:22.279Z,5.05
2022-12-29T18:15:48.686Z,5.93
2022-12-29T18:18:21.350Z,7.10
2022-12-29T18:20:49.636Z,4.75
2022-12-29T18:23:20.541Z,2.90
2022-12-29T18:26:13.105Z,5.85
2022-12-29T18:28:40.231Z,4.38
2022-12-29T18:31:32.117Z,8.65
2022-12-29T18:34:00.602Z,5.05
2022-12-29T18:36:27.675Z,4.18
2022-12-29T18:38:54.631Z,5.63
2022-12-29T18:41:26.627Z,6.63
2022-12-29T18:43:53.112Z,10.52
2022-12-29T18:46:23.142Z,9.38
2022-12-29T18:48:50.676Z,7.97
2022-12-29T18:51:19.630Z,8.52
2022-12-29T18:53:46.431Z,10.02
2022-12-29T18:56:13.035Z,7.53
2022-12-29T18:58:39.510Z,11.65
2022-12-29T19:01:07.242Z,9.13
2022-12-29T19:03:33.798Z,7.50
2022-12-29T19:06:00.736Z,4.28
2022-12-29T19:08:27.554Z,4.75
2022-12-29T19:10:56.152Z,7.55
2022-12-29T19:13:28.742Z,9.55
2022-12-29T19:15:57.160Z,5.85
2022-12-29T19:18:43.675Z,8.05
2022-12-29T19:21:10.836Z,7.75
2022-12-29T19:23:37.131Z,3.33
2022-12-29T19:26:03.528Z,7.30
2022-12-29T19:28:30.085Z,3.63
2022-12-29T19:31:00.021Z,7.28
2022-12-29T19:33:27.158Z,7.43
2022-12-29T19:35:59.441Z,5.65
2022-12-29T19:38:25.757Z,7.30
2022-12-29T19:40:52.129Z,7.78
2022-12-29T19:43:18.819Z,10.65
2022-12-29T19:45:45.766Z,4.72
2022-12-29T19:48:14.347Z,7.07
2022-12-29T19:50:40.836Z,7.05
2022-12-29T19:53:07.200Z,5.80
2022-12-29T19:55:33.618Z,5.40
2022-12-29T19:58:00.069Z,10.18
2022-12-29T20:00:26.852Z,10.52
2022-12-29T20:02:53.332Z,10.48
2022-12-29T20:05:19.964Z,10.10
2022-12-29T20:07:46.462Z,14.70
2022-12-29T20:10:13.143Z,13.75
2022-12-29T20:12:39.495Z,20.27
2022-12-29T20:15:08.411Z,12.98
2022-12-29T20:18:10.633Z,9.20
2022-12-29T20:20:21.895Z,11.63
2022-12-29T20:22:48.228Z,9.63
2022-12-29T20:28:00.956Z,8.32
2022-12-29T20:30:27.290Z,5.70
2022-12-29T20:32:53.644Z,9.38
2022-12-29T20:35:20.067Z,7.97
2022-12-29T20:37:46.420Z,8.68
2022-12-29T20:40:12.985Z,5.70
2022-12-29T20:42:39.440Z,6.32
2022-12-29T20:45:06.633Z,6.93
2022-12-29T20:47:33.004Z,14.23
2022-12-29T20:49:59.381Z,11.70
2022-12-29T20:52:25.756Z,10.60
2022-12-29T20:54:52.147Z,7.10
2022-12-29T20:57:18.510Z,10.07
2022-12-29T20:59:44.890Z,7.35
2022-12-29T21:02:19.290Z,6.22
2022-12-29T21:05:21.972Z,8.35
2022-12-29T21:07:32.871Z,9.73
2022-12-29T21:09:59.188Z,10.00
2022-12-29T21:12:25.617Z,7.47
2022-12-29T21:14:51.985Z,7.57
2022-12-29T21:17:18.433Z,9.13
2022-12-29T21:19:45.130Z,9.52
2022-12-29T21:22:11.563Z,6.43
2022-12-29T21:24:38.554Z,6.93
2022-12-29T21:27:04.976Z,7.05
2022-12-29T21:29:31.326Z,5.07
2022-12-29T21:32:06.474Z,6.53
2022-12-29T21:34:34.754Z,5.35
2022-12-29T21:37:01.617Z,2.70
2022-12-29T21:39:28.432Z,5.95
2022-12-29T21:41:59.983Z,6.53
2022-12-29T21:44:45.874Z,5.35
2022-12-29T21:47:12.379Z,11.68
2022-12-29T21:49:38.736Z,8.50
2022-12-29T21:52:05.275Z,12.02
2022-12-29T21:54:50.048Z,9.52
2022-12-29T21:57:37.140Z,9.27
2022-12-29T22:00:27.645Z,4.70
2022-12-29T22:03:21.970Z,6.78
2022-12-29T22:06:08.008Z,11.35
2022-12-29T22:08:52.867Z,8.82
2022-12-29T22:11:37.785Z,12.60
2022-12-29T22:14:04.247Z,11.02
2022-12-29T22:16:30.681Z,7.05
2022-12-29T22:18:57.241Z,7.13
2022-12-29T22:21:24.280Z,7.45
2022-12-29T22:23:50.637Z,7.80
2022-12-29T22:26:17.074Z,12.75
2022-12-29T22:28:46.174Z,4.55
2022-12-29T22:31:27.929Z,12.02
2022-12-29T22:33:59.687Z,4.25
2022-12-29T22:36:27.566Z,12.43
2022-12-29T22:38:54.042Z,6.20
2022-12-29T22:41:20.472Z,7.03
2022-12-29T22:43:46.803Z,7.25
2022-12-29T22:46:13.920Z,5.97
2022-12-29T22:48:40.752Z,8.18
2022-12-29T22:51:07.162Z,10.10
2022-12-29T22:53:33.814Z,13.07
2022-12-29T22:56:11.974Z,5.10
2022-12-29T22:58:46.050Z,9.40
2022-12-29T23:01:14.824Z,9.23
2022-12-29T23:03:42.024Z,12.25
2022-12-29T23:06:12.213Z,6.57
2022-12-29T23:08:39.866Z,8.98
2022-12-29T23:11:07.933Z,5.80
2022-12-29T23:13:34.824Z,7.50
2022-12-29T23:16:01.421Z,10.10
2022-12-29T23:18:28.524Z,5.80
2022-12-29T23:20:55.338Z,7.40
2022-12-29T23:23:46.528Z,7.40
2022-12-29T23:26:16.279Z,7.88
2022-12-29T23:28:42.848Z,8.80
2022-12-29T23:31:09.695Z,10.27
2022-12-29T23:33:36.104Z,8.98
2022-12-29T23:36:02.874Z,12.82
2022-12-29T23:38:29.165Z,8.63
2022-12-29T23:40:55.648Z,11.68
2022-12-29T23:43:22.030Z,10.70
2022-12-29T23:45:51.011Z,6.18
2022-12-29T23:48:18.203Z,9.85
2022-12-29T23:50:44.967Z,9.98
2022-12-29T23:53:12.017Z,9.23
2022-12-29T23:55:41.585Z,8.98
2022-12-29T23:58:08.244Z,11.60
